createdAt,value
2019-01-14T00:00:08.821Z,95175.59
2019-01-14T00:00:40.416Z,95183.45
2019-01-14T00:01:12.024Z,95167.27
2019-01-14T00:01:43.633Z,95161.53
2019-01-14T00:02:15.248Z,95167.16
2019-01-14T00:02:46.908Z,95167.95
2019-01-14T00:03:18.521Z,95184.31
2019-01-14T00:03:50.120Z,95177.77
2019-01-14T00:04:21.726Z,95177.58
2019-01-14T00:04:55.658Z,95174.83
2019-01-14T00:05:25.010Z,95166.18
2019-01-14T00:05:56.614Z,95174.98
2019-01-14T00:06:28.226Z,95164.23
2019-01-14T00:06:59.843Z,95173.45
2019-01-14T00:07:31.446Z,95165.73
2019-01-14T00:08:03.092Z,95171.13
2019-01-14T00:08:34.737Z,95161.73
2019-01-14T00:09:06.342Z,95170.98
2019-01-14T00:09:38.435Z,95164.58
2019-01-14T00:10:09.638Z,95169.16
2019-01-14T00:10:41.249Z,95167.44
2019-01-14T00:11:12.850Z,95166.98
2019-01-14T00:11:44.512Z,95169.91
2019-01-14T00:12:16.118Z,95165.67
2019-01-14T00:12:47.727Z,95160.61
2019-01-14T00:13:19.350Z,95172.98
2019-01-14T00:13:50.972Z,95164.02
2019-01-14T00:14:22.582Z,95163.31
2019-01-14T00:14:54.201Z,95165.41
2019-01-14T00:15:25.869Z,95163.31
2019-01-14T00:15:57.487Z,95166.27
2019-01-14T00:16:29.116Z,95166.31
2019-01-14T00:17:00.713Z,95163.72
2019-01-14T00:17:32.330Z,95160.35
2019-01-14T00:18:03.952Z,95154.84
2019-01-14T00:18:35.612Z,95150.16
2019-01-14T00:19:07.227Z,95157.84
2019-01-14T00:19:40.426Z,95162.89
2019-01-14T00:20:12.039Z,95162.03
2019-01-14T00:20:43.643Z,95168.41
2019-01-14T00:21:15.267Z,95172.59
2019-01-14T00:21:46.919Z,95160.24
2019-01-14T00:22:18.536Z,95171.25
2019-01-14T00:22:50.132Z,95157.62
2019-01-14T00:23:21.749Z,95166.02
2019-01-14T00:23:53.385Z,95165.52
2019-01-14T00:24:25.033Z,95167.10
2019-01-14T00:24:56.629Z,95158.56
2019-01-14T00:25:28.239Z,95160.20
2019-01-14T00:25:59.845Z,95146.23
2019-01-14T00:26:31.473Z,95161.67
2019-01-14T00:27:03.088Z,95163.28
2019-01-14T00:27:34.709Z,95156.35
2019-01-14T00:28:06.330Z,95157.52
2019-01-14T00:28:37.952Z,95161.19
2019-01-14T00:29:09.572Z,95146.65
2019-01-14T00:29:41.221Z,95155.27
2019-01-14T00:30:12.882Z,95156.77
2019-01-14T00:30:44.490Z,95159.46
2019-01-14T00:31:16.085Z,95159.23
2019-01-14T00:31:47.694Z,95153.69
2019-01-14T00:32:19.296Z,95159.34
2019-01-14T00:32:50.907Z,95154.92
2019-01-14T00:33:22.520Z,95153.91
2019-01-14T00:33:54.131Z,95152.55
2019-01-14T00:34:25.750Z,95157.54
2019-01-14T00:34:57.359Z,95158.62
2019-01-14T00:35:29.006Z,95153.89
2019-01-14T00:36:00.610Z,95167.80
2019-01-14T00:36:32.208Z,95151.16
2019-01-14T00:37:03.816Z,95153.63
2019-01-14T00:37:35.447Z,95153.66
2019-01-14T00:38:07.069Z,95149.80
2019-01-14T00:38:38.698Z,95156.47
2019-01-14T00:39:10.320Z,95146.69
2019-01-14T00:39:41.934Z,95155.98
2019-01-14T00:40:13.582Z,95155.98
2019-01-14T00:40:45.195Z,95153.77
2019-01-14T00:41:16.848Z,95158.00
2019-01-14T00:41:48.469Z,95160.52
2019-01-14T00:42:20.134Z,95166.84
2019-01-14T00:42:51.754Z,95153.16
2019-01-14T00:43:23.362Z,95165.83
2019-01-14T00:43:54.977Z,95159.45
2019-01-14T00:44:26.569Z,95161.94
2019-01-14T00:44:58.176Z,95165.30
2019-01-14T00:45:29.786Z,95163.95
2019-01-14T00:46:01.386Z,95160.58
2019-01-14T00:46:32.990Z,95136.73
2019-01-14T00:47:04.590Z,95166.05
2019-01-14T00:47:36.808Z,95166.80
2019-01-14T00:48:07.911Z,95173.95
2019-01-14T00:48:39.521Z,95161.13
2019-01-14T00:49:11.160Z,95160.17
2019-01-14T00:49:42.782Z,95163.80
2019-01-14T00:50:14.398Z,95176.13
2019-01-14T00:50:46.015Z,95161.29
2019-01-14T00:51:17.640Z,95154.91
2019-01-14T00:51:49.287Z,95162.60
2019-01-14T00:52:20.906Z,95159.60
2019-01-14T00:52:52.517Z,95166.05
2019-01-14T00:53:24.139Z,95161.33
2019-01-14T00:53:55.758Z,95163.50
2019-01-14T00:54:27.362Z,95164.81
2019-01-14T00:54:58.966Z,95169.05
2019-01-14T00:55:30.589Z,95172.01
2019-01-14T00:56:02.210Z,95174.97
2019-01-14T00:56:33.875Z,95182.09
2019-01-14T00:57:05.489Z,95156.64
2019-01-14T00:57:37.094Z,95166.43
2019-01-14T00:58:08.709Z,95173.21
2019-01-14T00:58:40.319Z,95165.16
2019-01-14T00:59:11.926Z,95175.77
2019-01-14T00:59:43.525Z,95171.89
2019-01-14T01:00:15.121Z,95162.60
2019-01-14T01:00:46.776Z,95163.88
2019-01-14T01:01:18.376Z,95176.70
2019-01-14T01:01:50.009Z,95173.33
2019-01-14T01:02:21.615Z,95171.59
2019-01-14T01:02:53.220Z,95164.40
2019-01-14T01:03:24.831Z,95198.86
2019-01-14T01:03:56.486Z,95181.05
2019-01-14T01:04:28.113Z,95181.53
2019-01-14T01:04:59.713Z,95181.12
2019-01-14T01:05:31.430Z,95186.63
2019-01-14T01:06:03.048Z,95193.42
2019-01-14T01:06:34.662Z,95173.92
2019-01-14T01:07:06.279Z,95175.69
2019-01-14T01:07:37.886Z,95178.98
2019-01-14T01:08:09.481Z,95187.84
2019-01-14T01:08:41.099Z,95178.58
2019-01-14T01:09:12.702Z,95178.20
2019-01-14T01:09:44.365Z,95183.22
2019-01-14T01:10:15.962Z,95177.19
2019-01-14T01:10:47.570Z,95181.34
2019-01-14T01:11:19.188Z,95176.28
2019-01-14T01:11:50.816Z,95196.67
2019-01-14T01:12:22.468Z,95155.09
2019-01-14T01:12:54.085Z,95189.52
2019-01-14T01:13:25.708Z,95198.52
2019-01-14T01:13:57.318Z,95172.24
2019-01-14T01:14:28.941Z,95185.03
2019-01-14T01:15:00.546Z,95187.95
2019-01-14T01:15:32.154Z,95191.06
2019-01-14T01:16:03.775Z,95189.72
2019-01-14T01:16:35.368Z,95178.73
2019-01-14T01:17:06.975Z,95198.64
2019-01-14T01:17:38.585Z,95193.61
2019-01-14T01:18:10.238Z,95192.75
2019-01-14T01:18:41.828Z,95197.36
2019-01-14T01:19:13.448Z,95189.79
2019-01-14T01:19:45.107Z,95195.34
2019-01-14T01:20:16.715Z,95218.31
2019-01-14T01:20:48.314Z,95203.84
2019-01-14T01:21:19.939Z,95176.63
2019-01-14T01:21:51.602Z,95202.08
2019-01-14T01:22:23.217Z,95202.53
2019-01-14T01:22:54.822Z,95203.39
2019-01-14T01:23:26.440Z,95202.13
2019-01-14T01:23:58.036Z,95167.92
2019-01-14T01:24:29.654Z,95222.92
2019-01-14T01:25:01.269Z,95208.50
2019-01-14T01:25:32.880Z,95228.02
2019-01-14T01:26:04.500Z,95233.72
2019-01-14T01:26:36.115Z,95224.23
2019-01-14T01:27:07.777Z,95227.23
2019-01-14T01:27:39.396Z,95217.05
2019-01-14T01:28:11.003Z,95219.63
2019-01-14T01:28:42.618Z,95217.08
2019-01-14T01:29:14.285Z,95212.20
2019-01-14T01:29:45.877Z,95233.77
2019-01-14T01:30:17.480Z,95207.82
2019-01-14T01:30:49.098Z,95223.98
2019-01-14T01:31:20.718Z,95195.58
2019-01-14T01:31:52.336Z,95230.05
2019-01-14T01:32:23.942Z,95229.23
2019-01-14T01:32:55.605Z,95219.97
2019-01-14T01:33:27.215Z,95222.59
2019-01-14T01:33:58.829Z,95238.75
2019-01-14T01:34:30.440Z,95226.00
2019-01-14T01:35:02.056Z,95217.50
2019-01-14T01:35:33.668Z,95207.70
2019-01-14T01:36:05.279Z,95238.75
2019-01-14T01:36:36.886Z,95240.84
2019-01-14T01:37:08.544Z,95227.23
2019-01-14T01:37:40.168Z,95246.80
2019-01-14T01:38:11.774Z,95222.37
2019-01-14T01:38:43.379Z,95247.22
2019-01-14T01:39:15.004Z,95251.45
2019-01-14T01:39:46.628Z,95248.91
2019-01-14T01:40:18.242Z,95247.97
2019-01-14T01:40:49.852Z,95244.19
2019-01-14T01:41:21.457Z,95244.19
2019-01-14T01:41:53.115Z,95255.98
2019-01-14T01:42:24.731Z,95250.74
2019-01-14T01:42:56.331Z,95259.92
2019-01-14T01:43:27.982Z,95259.78
2019-01-14T01:43:59.586Z,95254.79
2019-01-14T01:44:31.238Z,95258.80
2019-01-14T01:45:02.853Z,95252.09
2019-01-14T01:45:34.485Z,95255.39
2019-01-14T01:46:06.086Z,95261.23
2019-01-14T01:46:37.703Z,95251.90
2019-01-14T01:47:09.323Z,95255.35
2019-01-14T01:47:40.967Z,95252.50
2019-01-14T01:48:12.575Z,95257.45
2019-01-14T01:48:44.186Z,95259.25
2019-01-14T01:49:15.858Z,95261.65
2019-01-14T01:49:47.481Z,95268.36
2019-01-14T01:50:19.075Z,95272.56
2019-01-14T01:50:50.680Z,95264.88
2019-01-14T01:51:22.287Z,95266.11
2019-01-14T01:51:53.903Z,95270.75
2019-01-14T01:52:25.505Z,95261.61
2019-01-14T01:52:57.155Z,95276.20
2019-01-14T01:53:28.771Z,95264.72
2019-01-14T01:54:00.382Z,95265.58
2019-01-14T01:54:32.009Z,95265.09
2019-01-14T01:55:03.625Z,95264.69
2019-01-14T01:55:35.231Z,95265.50
2019-01-14T01:56:06.848Z,95273.20
2019-01-14T01:56:38.475Z,95266.00
2019-01-14T01:57:10.090Z,95265.20
2019-01-14T01:57:41.700Z,95266.06
2019-01-14T01:58:13.292Z,95271.28
2019-01-14T01:58:44.954Z,95277.66
2019-01-14T01:59:16.559Z,95273.84
2019-01-14T01:59:48.175Z,95277.28
2019-01-14T02:00:19.797Z,95282.01
2019-01-14T02:00:51.420Z,95279.09
2019-01-14T02:01:23.044Z,95271.55
2019-01-14T02:01:54.655Z,95273.23
2019-01-14T02:02:26.273Z,95273.27
2019-01-14T02:02:57.901Z,95262.70
2019-01-14T02:03:29.510Z,95273.88
2019-01-14T02:04:01.162Z,95278.52
2019-01-14T02:04:32.785Z,95278.52
2019-01-14T02:05:04.400Z,95278.41
2019-01-14T02:05:36.009Z,95289.88
2019-01-14T02:06:07.615Z,95279.64
2019-01-14T02:06:39.455Z,95283.47
2019-01-14T02:07:10.874Z,95284.30
2019-01-14T02:07:42.501Z,95289.44
2019-01-14T02:08:14.118Z,95268.17
2019-01-14T02:08:45.730Z,95289.47
2019-01-14T02:09:17.383Z,95293.30
2019-01-14T02:09:48.995Z,95300.60
2019-01-14T02:10:20.665Z,95287.89
2019-01-14T02:10:52.275Z,95296.78
2019-01-14T02:11:23.897Z,95311.29
2019-01-14T02:11:55.517Z,95300.27
2019-01-14T02:12:27.111Z,95303.71
2019-01-14T02:12:58.724Z,95294.38
2019-01-14T02:13:30.348Z,95296.59
2019-01-14T02:14:01.956Z,95297.45
2019-01-14T02:14:33.562Z,95300.48
2019-01-14T02:15:05.174Z,95316.27
2019-01-14T02:15:36.782Z,95300.98
2019-01-14T02:16:08.391Z,95313.34
2019-01-14T02:16:40.012Z,95308.77
2019-01-14T02:17:11.607Z,95307.13
2019-01-14T02:17:43.218Z,95313.23
2019-01-14T02:18:14.881Z,95321.29
2019-01-14T02:18:46.532Z,95324.81
2019-01-14T02:19:18.152Z,95306.45
2019-01-14T02:19:49.769Z,95313.75
2019-01-14T02:20:21.461Z,95311.66
2019-01-14T02:20:53.062Z,95315.06
2019-01-14T02:21:24.652Z,95332.01
2019-01-14T02:21:56.266Z,95311.24
2019-01-14T02:22:27.870Z,95329.84
2019-01-14T02:22:59.470Z,95327.36
2019-01-14T02:23:31.074Z,95317.61
2019-01-14T02:24:02.710Z,95335.34
2019-01-14T02:24:34.321Z,95330.36
2019-01-14T02:25:05.952Z,95311.09
2019-01-14T02:25:37.577Z,95314.88
2019-01-14T02:26:09.185Z,95311.92
2019-01-14T02:26:40.835Z,95316.91
2019-01-14T02:27:12.432Z,95317.88
2019-01-14T02:27:44.046Z,95325.94
2019-01-14T02:28:15.651Z,95326.20
2019-01-14T02:28:47.258Z,95336.81
2019-01-14T02:29:18.889Z,95347.27
2019-01-14T02:29:50.525Z,95332.84
2019-01-14T02:30:22.150Z,95328.56
2019-01-14T02:30:53.781Z,95329.69
2019-01-14T02:31:25.403Z,95336.89
2019-01-14T02:31:57.072Z,95336.03
2019-01-14T02:32:28.703Z,95355.60
2019-01-14T02:33:00.323Z,95336.06
2019-01-14T02:33:31.973Z,95343.27
2019-01-14T02:34:03.606Z,95326.28
2019-01-14T02:34:35.214Z,95336.48
2019-01-14T02:35:06.846Z,95345.77
2019-01-14T02:35:38.476Z,95338.13
2019-01-14T02:36:10.101Z,95344.88
2019-01-14T02:36:48.447Z,95350.91
2019-01-14T02:37:13.444Z,95338.62
2019-01-14T02:37:45.071Z,95351.59
2019-01-14T02:38:16.693Z,95345.30
2019-01-14T02:38:48.289Z,95355.38
2019-01-14T02:39:19.909Z,95342.75
2019-01-14T02:39:51.564Z,95366.97
2019-01-14T02:40:23.170Z,95359.66
2019-01-14T02:40:54.825Z,95349.61
2019-01-14T02:41:26.441Z,95352.61
2019-01-14T02:41:58.072Z,95360.38
2019-01-14T02:42:29.668Z,95354.03
2019-01-14T02:43:01.287Z,95359.55
2019-01-14T02:43:32.894Z,95368.02
2019-01-14T02:44:04.494Z,95356.95
2019-01-14T02:44:36.103Z,95346.38
2019-01-14T02:45:07.719Z,95353.69
2019-01-14T02:45:39.384Z,95357.25
2019-01-14T02:46:10.990Z,95357.30
2019-01-14T02:46:42.592Z,95356.84
2019-01-14T02:47:14.194Z,95346.75
2019-01-14T02:47:45.815Z,95352.84
2019-01-14T02:48:17.426Z,95364.16
2019-01-14T02:48:49.041Z,95364.95
2019-01-14T02:49:20.640Z,95376.69
2019-01-14T02:49:52.283Z,95377.82
2019-01-14T02:50:23.999Z,95370.95
2019-01-14T02:50:55.606Z,95368.70
2019-01-14T02:51:27.220Z,95386.45
2019-01-14T02:51:58.826Z,95388.89
2019-01-14T02:52:30.440Z,95380.27
2019-01-14T02:53:02.058Z,95379.40
2019-01-14T02:53:33.725Z,95375.91
2019-01-14T02:54:05.339Z,95385.59
2019-01-14T02:54:36.963Z,95376.97
2019-01-14T02:55:08.578Z,95380.19
2019-01-14T02:55:40.193Z,95379.29
2019-01-14T02:56:11.839Z,95391.56
2019-01-14T02:56:43.466Z,95390.09
2019-01-14T02:57:15.074Z,95373.89
2019-01-14T02:57:46.691Z,95391.30
2019-01-14T02:58:18.290Z,95389.02
2019-01-14T02:58:49.900Z,95363.31
2019-01-14T02:59:21.533Z,95391.38
2019-01-14T02:59:53.158Z,95388.82
2019-01-14T03:00:24.778Z,95396.73
2019-01-14T03:00:56.389Z,95401.02
2019-01-14T03:01:28.026Z,95382.59
2019-01-14T03:01:59.635Z,95379.70
2019-01-14T03:02:31.258Z,95402.41
2019-01-14T03:03:02.870Z,95406.09
2019-01-14T03:03:34.537Z,95398.35
2019-01-14T03:04:06.159Z,95401.16
2019-01-14T03:04:37.787Z,95412.54
2019-01-14T03:05:09.384Z,95403.12
2019-01-14T03:05:40.999Z,95404.32
2019-01-14T03:06:12.627Z,95406.84
2019-01-14T03:06:44.246Z,95408.97
2019-01-14T03:07:15.856Z,95399.14
2019-01-14T03:07:47.518Z,95402.14
2019-01-14T03:08:19.131Z,95415.72
2019-01-14T03:08:50.753Z,95398.27
2019-01-14T03:09:22.363Z,95411.78
2019-01-14T03:09:53.967Z,95404.55
2019-01-14T03:10:25.572Z,95410.77
2019-01-14T03:10:57.193Z,95414.44
2019-01-14T03:11:28.819Z,95413.50
2019-01-14T03:12:00.436Z,95409.11
2019-01-14T03:12:32.029Z,95419.58
2019-01-14T03:13:03.636Z,95424.95
2019-01-14T03:13:35.243Z,95406.59
2019-01-14T03:14:06.851Z,95406.06
2019-01-14T03:14:38.484Z,95414.02
2019-01-14T03:15:10.108Z,95421.14
2019-01-14T03:15:41.726Z,95421.41
2019-01-14T03:16:13.335Z,95422.57
2019-01-14T03:16:44.947Z,95417.50
2019-01-14T03:17:16.550Z,95426.73
2019-01-14T03:17:48.178Z,95416.04
2019-01-14T03:18:19.791Z,95424.03
2019-01-14T03:18:51.412Z,95429.48
2019-01-14T03:19:23.015Z,95422.34
2019-01-14T03:19:54.623Z,95426.58
2019-01-14T03:20:26.220Z,95437.70
2019-01-14T03:20:57.833Z,95429.92
2019-01-14T03:21:29.445Z,95430.67
2019-01-14T03:22:01.041Z,95428.79
2019-01-14T03:22:32.670Z,95438.48
2019-01-14T03:23:04.295Z,95435.10
2019-01-14T03:23:35.911Z,95437.62
2019-01-14T03:24:07.537Z,95437.91
2019-01-14T03:24:39.167Z,95439.97
2019-01-14T03:25:10.867Z,95440.80
2019-01-14T03:25:42.487Z,95449.17
2019-01-14T03:26:14.090Z,95444.28
2019-01-14T03:26:45.687Z,95445.91
2019-01-14T03:27:17.310Z,95446.19
2019-01-14T03:27:48.921Z,95450.52
2019-01-14T03:28:20.521Z,95454.34
2019-01-14T03:28:52.189Z,95458.89
2019-01-14T03:29:23.803Z,95453.07
2019-01-14T03:29:55.405Z,95447.84
2019-01-14T03:30:27.026Z,95454.23
2019-01-14T03:30:58.641Z,95451.34
2019-01-14T03:31:30.247Z,95451.80
2019-01-14T03:32:01.860Z,95459.83
2019-01-14T03:32:33.464Z,95450.06
2019-01-14T03:33:05.071Z,95459.41
2019-01-14T03:33:36.675Z,95456.75
2019-01-14T03:34:08.288Z,95456.30
2019-01-14T03:34:39.931Z,95458.85
2019-01-14T03:35:11.537Z,95462.23
2019-01-14T03:35:43.143Z,95466.06
2019-01-14T03:36:14.741Z,95466.06
2019-01-14T03:36:46.360Z,95472.86
2019-01-14T03:37:17.968Z,95469.62
2019-01-14T03:37:49.578Z,95466.92
2019-01-14T03:38:21.195Z,95477.44
2019-01-14T03:38:53.190Z,95480.82
2019-01-14T03:39:24.791Z,95467.59
2019-01-14T03:39:56.447Z,95478.23
2019-01-14T03:40:28.078Z,95477.66
2019-01-14T03:40:59.685Z,95482.45
2019-01-14T03:41:31.309Z,95474.28
2019-01-14T03:42:02.930Z,95470.53
2019-01-14T03:42:34.539Z,95479.63
2019-01-14T03:43:06.164Z,95482.45
2019-01-14T03:43:37.783Z,95489.19
2019-01-14T03:44:09.422Z,95484.27
2019-01-14T03:44:41.041Z,95487.77
2019-01-14T03:45:12.697Z,95480.45
2019-01-14T03:45:44.311Z,95490.33
2019-01-14T03:46:15.918Z,95504.94
2019-01-14T03:46:47.528Z,95488.19
2019-01-14T03:47:19.132Z,95485.34
2019-01-14T03:47:50.759Z,95496.00
2019-01-14T03:48:22.410Z,95488.34
2019-01-14T03:48:54.030Z,95492.17
2019-01-14T03:49:25.690Z,95493.56
2019-01-14T03:49:57.302Z,95456.63
2019-01-14T03:50:28.908Z,95505.36
2019-01-14T03:51:00.544Z,95504.04
2019-01-14T03:51:32.144Z,95494.58
2019-01-14T03:52:03.761Z,95489.95
2019-01-14T03:52:35.367Z,95504.34
2019-01-14T03:53:06.996Z,95507.53
2019-01-14T03:53:38.646Z,95510.28
2019-01-14T03:54:10.259Z,95504.70
2019-01-14T03:54:41.907Z,95511.50
2019-01-14T03:55:13.520Z,95502.84
2019-01-14T03:55:45.138Z,95505.30
2019-01-14T03:56:16.766Z,95523.84
2019-01-14T03:56:48.377Z,95462.65
2019-01-14T03:57:19.997Z,95505.31
2019-01-14T03:57:51.606Z,95519.02
2019-01-14T03:58:23.207Z,95514.31
2019-01-14T03:58:54.816Z,95515.97
2019-01-14T03:59:26.452Z,95517.16
2019-01-14T03:59:58.088Z,95521.55
2019-01-14T04:00:29.703Z,95540.12
2019-01-14T04:01:01.319Z,95534.24
2019-01-14T04:01:32.978Z,95539.97
2019-01-14T04:02:04.599Z,95533.55
2019-01-14T04:02:36.220Z,95520.65
2019-01-14T04:03:07.848Z,95539.79
2019-01-14T04:03:39.479Z,95533.19
2019-01-14T04:04:11.131Z,95536.66
2019-01-14T04:04:42.742Z,95542.05
2019-01-14T04:05:14.353Z,95533.52
2019-01-14T04:05:45.999Z,95534.73
2019-01-14T04:06:17.640Z,95539.55
2019-01-14T04:06:49.264Z,95540.98
2019-01-14T04:07:20.879Z,95540.80
2019-01-14T04:07:52.505Z,95539.80
2019-01-14T04:08:24.135Z,95543.89
2019-01-14T04:08:55.771Z,95541.23
2019-01-14T04:09:27.389Z,95536.98
2019-01-14T04:09:59.020Z,95549.53
2019-01-14T04:10:30.639Z,95559.63
2019-01-14T04:11:02.250Z,95540.93
2019-01-14T04:11:33.907Z,95539.20
2019-01-14T04:12:05.543Z,95548.37
2019-01-14T04:12:37.154Z,95553.06
2019-01-14T04:13:08.763Z,95555.58
2019-01-14T04:13:40.382Z,95541.92
2019-01-14T04:14:12.007Z,95559.30
2019-01-14T04:14:43.648Z,95546.95
2019-01-14T04:15:15.263Z,95548.19
2019-01-14T04:15:46.896Z,95557.91
2019-01-14T04:16:18.490Z,95566.84
2019-01-14T04:16:50.140Z,95552.69
2019-01-14T04:17:21.755Z,95556.11
2019-01-14T04:17:53.378Z,95563.77
2019-01-14T04:18:24.992Z,95554.34
2019-01-14T04:18:56.641Z,95562.01
2019-01-14T04:19:28.262Z,95565.77
2019-01-14T04:19:59.886Z,95560.20
2019-01-14T04:20:31.497Z,95561.82
2019-01-14T04:21:03.161Z,95571.58
2019-01-14T04:21:34.797Z,95574.17
2019-01-14T04:22:06.406Z,95578.41
2019-01-14T04:22:38.050Z,95580.11
2019-01-14T04:23:09.717Z,95578.79
2019-01-14T04:23:41.383Z,95580.93
2019-01-14T04:24:13.017Z,95581.34
2019-01-14T04:24:44.633Z,95571.58
2019-01-14T04:25:16.270Z,95576.20
2019-01-14T04:25:47.888Z,95584.72
2019-01-14T04:26:19.503Z,95585.55
2019-01-14T04:26:51.101Z,95585.48
2019-01-14T04:27:22.693Z,95587.13
2019-01-14T04:27:54.322Z,95595.61
2019-01-14T04:28:25.980Z,95587.55
2019-01-14T04:28:57.596Z,95568.19
2019-01-14T04:29:29.239Z,95580.64
2019-01-14T04:30:00.882Z,95565.70
2019-01-14T04:30:32.511Z,95580.19
2019-01-14T04:31:04.161Z,95586.13
2019-01-14T04:31:35.808Z,95587.36
2019-01-14T04:32:07.457Z,95591.19
2019-01-14T04:32:39.135Z,95595.02
2019-01-14T04:33:10.737Z,95591.19
2019-01-14T04:33:42.362Z,95591.60
2019-01-14T04:34:13.983Z,95590.73
2019-01-14T04:34:45.590Z,95595.84
2019-01-14T04:35:17.197Z,95596.23
2019-01-14T04:35:48.802Z,95585.15
2019-01-14T04:36:20.419Z,95601.25
2019-01-14T04:36:52.047Z,95597.39
2019-01-14T04:37:23.711Z,95597.84
2019-01-14T04:37:55.323Z,95602.95
2019-01-14T04:38:26.962Z,95612.75
2019-01-14T04:38:58.584Z,95599.56
2019-01-14T04:39:30.214Z,95590.18
2019-01-14T04:40:01.845Z,95579.48
2019-01-14T04:40:33.474Z,95614.10
2019-01-14T04:41:05.090Z,95599.75
2019-01-14T04:41:36.702Z,95605.38
2019-01-14T04:42:08.346Z,95607.25
2019-01-14T04:42:39.991Z,95606.91
2019-01-14T04:43:11.604Z,95604.09
2019-01-14T04:43:43.219Z,95617.83
2019-01-14T04:44:14.849Z,95608.52
2019-01-14T04:44:46.472Z,95621.38
2019-01-14T04:45:18.084Z,95633.91
2019-01-14T04:45:49.701Z,95625.43
2019-01-14T04:46:21.331Z,95602.56
2019-01-14T04:46:52.960Z,95631.55
2019-01-14T04:47:24.632Z,95624.86
2019-01-14T04:47:56.290Z,95628.83
2019-01-14T04:48:27.921Z,95637.04
2019-01-14T04:48:59.536Z,95639.84
2019-01-14T04:49:31.146Z,95616.08
2019-01-14T04:50:02.755Z,95629.36
2019-01-14T04:50:34.394Z,95630.74
2019-01-14T04:51:06.056Z,95638.58
2019-01-14T04:51:37.682Z,95635.34
2019-01-14T04:52:09.285Z,95635.48
2019-01-14T04:52:40.898Z,95651.69
2019-01-14T04:53:12.526Z,95653.52
2019-01-14T04:53:44.153Z,95636.28
2019-01-14T04:54:15.783Z,95634.55
2019-01-14T04:54:47.402Z,95649.41
2019-01-14T04:55:19.025Z,95648.59
2019-01-14T04:55:50.674Z,95638.83
2019-01-14T04:56:22.283Z,95658.83
2019-01-14T04:56:53.889Z,95660.89
2019-01-14T04:57:25.570Z,95653.62
2019-01-14T04:57:57.197Z,95659.03
2019-01-14T04:58:28.824Z,95656.52
2019-01-14T04:59:00.457Z,95660.00
2019-01-14T04:59:32.074Z,95667.66
2019-01-14T05:00:03.686Z,95655.34
2019-01-14T05:00:35.304Z,95674.83
2019-01-14T05:01:06.939Z,95660.69
2019-01-14T05:01:38.554Z,95665.23
2019-01-14T05:02:10.192Z,95667.27
2019-01-14T05:02:41.866Z,95679.58
2019-01-14T05:03:13.478Z,95658.89
2019-01-14T05:03:45.109Z,95668.92
2019-01-14T05:04:16.739Z,95675.03
2019-01-14T05:04:48.371Z,95676.86
2019-01-14T05:05:19.997Z,95669.27
2019-01-14T05:05:51.624Z,95676.61
2019-01-14T05:06:23.265Z,95677.06
2019-01-14T05:06:54.882Z,95672.37
2019-01-14T05:07:29.792Z,95670.79
2019-01-14T05:07:58.209Z,95675.55
2019-01-14T05:08:29.878Z,95671.83
2019-01-14T05:09:01.532Z,95663.38
2019-01-14T05:09:33.160Z,95672.45
2019-01-14T05:10:04.758Z,95670.89
2019-01-14T05:10:36.391Z,95679.09
2019-01-14T05:11:08.039Z,95676.17
2019-01-14T05:11:39.655Z,95679.30
2019-01-14T05:12:11.262Z,95670.55
2019-01-14T05:12:42.914Z,95685.95
2019-01-14T05:13:14.527Z,95671.69
2019-01-14T05:13:46.140Z,95683.61
2019-01-14T05:14:17.746Z,95682.05
2019-01-14T05:14:49.380Z,95677.06
2019-01-14T05:15:21.015Z,95679.64
2019-01-14T05:15:52.715Z,95670.89
2019-01-14T05:16:24.328Z,95680.16
2019-01-14T05:16:55.956Z,95679.23
2019-01-14T05:17:27.580Z,95684.30
2019-01-14T05:17:59.209Z,95686.30
2019-01-14T05:18:30.806Z,95686.23
2019-01-14T05:19:02.421Z,95691.27
2019-01-14T05:19:34.048Z,95700.98
2019-01-14T05:20:05.676Z,95685.09
2019-01-14T05:20:37.294Z,95682.86
2019-01-14T05:21:08.942Z,95691.61
2019-01-14T05:21:40.564Z,95696.54
2019-01-14T05:22:12.222Z,95697.23
2019-01-14T05:22:43.863Z,95692.03
2019-01-14T05:23:15.482Z,95701.75
2019-01-14T05:23:47.096Z,95703.30
2019-01-14T05:24:18.699Z,95701.92
2019-01-14T05:24:50.329Z,95695.92
2019-01-14T05:25:21.952Z,95721.71
2019-01-14T05:25:53.582Z,95699.89
2019-01-14T05:26:25.200Z,95701.02
2019-01-14T05:26:56.878Z,95700.55
2019-01-14T05:27:28.499Z,95705.92
2019-01-14T05:28:00.193Z,95699.92
2019-01-14T05:28:31.801Z,95704.09
2019-01-14T05:29:03.419Z,95700.09
2019-01-14T05:29:35.021Z,95698.27
2019-01-14T05:30:06.629Z,95706.71
2019-01-14T05:30:38.238Z,95693.40
2019-01-14T05:31:09.861Z,95702.61
2019-01-14T05:31:42.000Z,95698.70
2019-01-14T05:32:13.175Z,95711.26
2019-01-14T05:32:44.802Z,95701.47
2019-01-14T05:33:16.416Z,95701.39
2019-01-14T05:33:48.013Z,95704.70
2019-01-14T05:34:19.638Z,95710.22
2019-01-14T05:34:51.250Z,95705.88
2019-01-14T05:35:22.874Z,95709.11
2019-01-14T05:35:54.512Z,95715.83
2019-01-14T05:36:26.122Z,95720.83
2019-01-14T05:36:57.741Z,95714.38
2019-01-14T05:37:37.092Z,95715.14
2019-01-14T05:38:01.023Z,95716.38
2019-01-14T05:38:32.644Z,95720.03
2019-01-14T05:39:04.369Z,95712.78
2019-01-14T05:39:35.956Z,95715.38
2019-01-14T05:40:07.578Z,95720.61
2019-01-14T05:40:39.193Z,95717.51
2019-01-14T05:41:10.797Z,95725.09
2019-01-14T05:41:42.407Z,95713.50
2019-01-14T05:42:14.053Z,95732.13
2019-01-14T05:42:45.661Z,95737.61
2019-01-14T05:43:17.271Z,95732.84
2019-01-14T05:43:48.896Z,95725.91
2019-01-14T05:44:20.525Z,95719.04
2019-01-14T05:44:52.192Z,95733.39
2019-01-14T05:45:24.022Z,95726.86
2019-01-14T05:45:55.614Z,95735.31
2019-01-14T05:46:27.218Z,95723.27
2019-01-14T05:46:58.883Z,95727.41
2019-01-14T05:47:30.493Z,95727.33
2019-01-14T05:48:02.107Z,95731.06
2019-01-14T05:48:33.701Z,95730.57
2019-01-14T05:49:05.328Z,95733.02
2019-01-14T05:49:36.942Z,95726.22
2019-01-14T05:50:08.568Z,95732.95
2019-01-14T05:50:40.178Z,95733.33
2019-01-14T05:51:11.822Z,95736.77
2019-01-14T05:51:43.437Z,95733.73
2019-01-14T05:52:15.040Z,95738.91
2019-01-14T05:52:46.641Z,95732.16
2019-01-14T05:53:18.249Z,95732.98
2019-01-14T05:53:50.815Z,95749.17
2019-01-14T05:54:21.555Z,95724.69
2019-01-14T05:54:53.219Z,95724.08
2019-01-14T05:55:24.853Z,95735.98
2019-01-14T05:55:56.453Z,95743.20
2019-01-14T05:56:28.306Z,95733.84
2019-01-14T05:56:59.928Z,95741.06
2019-01-14T05:57:31.550Z,95728.02
2019-01-14T05:58:03.168Z,95730.02
2019-01-14T05:58:34.792Z,95743.61
2019-01-14T05:59:06.407Z,95746.61
2019-01-14T05:59:38.062Z,95734.26
2019-01-14T06:00:09.706Z,95746.61
2019-01-14T06:00:41.323Z,95744.89
2019-01-14T06:01:12.946Z,95753.00
2019-01-14T06:01:44.580Z,95746.17
2019-01-14T06:02:16.205Z,95746.17
2019-01-14T06:02:47.832Z,95745.75
2019-01-14T06:03:19.447Z,95735.53
2019-01-14T06:03:51.074Z,95750.48
2019-01-14T06:04:22.689Z,95751.77
2019-01-14T06:04:54.316Z,95758.88
2019-01-14T06:05:26.059Z,95758.00
2019-01-14T06:05:57.787Z,95757.59
2019-01-14T06:06:29.420Z,95753.38
2019-01-14T06:07:01.035Z,95761.12
2019-01-14T06:07:32.642Z,95744.52
2019-01-14T06:08:04.245Z,95759.88
2019-01-14T06:08:35.868Z,95761.16
2019-01-14T06:09:07.503Z,95757.73
2019-01-14T06:09:39.132Z,95754.24
2019-01-14T06:10:10.761Z,95756.01
2019-01-14T06:10:42.389Z,95758.98
2019-01-14T06:11:14.006Z,95752.62